createdAt,value
2018-09-09T00:01:53.780Z,10.88
2018-09-09T00:04:22.840Z,10.10
2018-09-09T00:06:51.835Z,11.10
2018-09-09T00:09:25.908Z,10.28
2018-09-09T00:11:55.282Z,9.68
2018-09-09T00:14:24.228Z,9.95
2018-09-09T00:16:53.253Z,10.30
2018-09-09T00:19:22.194Z,10.23
2018-09-09T00:21:51.321Z,10.30
2018-09-09T00:24:20.358Z,10.70
2018-09-09T00:26:49.425Z,10.58
2018-09-09T00:29:18.417Z,11.63
2018-09-09T00:31:47.386Z,11.43
2018-09-09T00:34:16.358Z,11.68
2018-09-09T00:36:45.295Z,12.43
2018-09-09T00:39:14.296Z,12.13
2018-09-09T00:41:43.214Z,10.80
2018-09-09T00:44:12.198Z,13.05
2018-09-09T00:46:41.206Z,12.50
2018-09-09T00:49:15.421Z,12.40
2018-09-09T00:51:49.465Z,11.40
2018-09-09T00:54:18.477Z,12.37
2018-09-09T00:56:47.385Z,13.05
2018-09-09T00:59:16.382Z,14.13
2018-09-09T01:01:45.377Z,13.72
2018-09-09T01:04:14.374Z,14.58
2018-09-09T01:06:43.284Z,14.50
2018-09-09T01:09:12.569Z,13.05
2018-09-09T01:11:41.491Z,14.50
2018-09-09T01:14:10.411Z,13.80
2018-09-09T01:16:39.333Z,15.00
2018-09-09T01:19:08.269Z,14.78
2018-09-09T01:21:37.248Z,16.65
2018-09-09T01:24:06.187Z,17.15
2018-09-09T01:26:35.197Z,14.93
2018-09-09T01:29:04.209Z,15.60
2018-09-09T01:31:33.204Z,16.23
2018-09-09T01:34:02.428Z,16.12
2018-09-09T01:36:31.401Z,16.60
2018-09-09T01:39:00.299Z,16.57
2018-09-09T01:41:29.282Z,14.87
2018-09-09T01:43:58.206Z,18.15
2018-09-09T01:46:27.123Z,16.05
2018-09-09T01:48:56.152Z,17.05
2018-09-09T01:51:25.081Z,18.40
2018-09-09T01:53:54.078Z,17.10
2018-09-09T01:56:23.000Z,17.67
2018-09-09T01:58:51.932Z,16.82
2018-09-09T02:01:20.882Z,16.52
2018-09-09T02:03:49.817Z,17.60
2018-09-09T02:06:18.800Z,18.87
2018-09-09T02:08:47.767Z,18.62
2018-09-09T02:11:16.734Z,19.67
2018-09-09T02:13:45.716Z,18.67
2018-09-09T02:16:14.738Z,19.80
2018-09-09T02:18:43.672Z,18.32
2018-09-09T02:21:12.657Z,20.30
2018-09-09T02:23:41.597Z,18.30
2018-09-09T02:26:10.508Z,19.07
2018-09-09T02:28:39.465Z,19.48
2018-09-09T02:31:08.376Z,20.55
2018-09-09T02:33:37.288Z,19.25
2018-09-09T02:36:06.363Z,19.05
2018-09-09T02:38:35.305Z,19.32
2018-09-09T02:41:04.247Z,19.40
2018-09-09T02:43:33.234Z,19.75
2018-09-09T02:46:02.176Z,18.35
2018-09-09T02:48:31.099Z,19.37
2018-09-09T02:51:00.426Z,17.85
2018-09-09T02:53:29.377Z,18.62
2018-09-09T02:55:58.359Z,18.87
2018-09-09T02:58:27.270Z,19.27
2018-09-09T03:00:56.593Z,17.32
2018-09-09T03:03:25.594Z,18.10
2018-09-09T03:05:54.583Z,17.98
2018-09-09T03:08:23.558Z,18.45
2018-09-09T03:10:57.537Z,16.40
2018-09-09T03:13:26.491Z,18.23
2018-09-09T03:15:55.416Z,18.32
2018-09-09T03:18:24.357Z,18.92
2018-09-09T03:20:53.328Z,18.73
2018-09-09T03:23:22.272Z,17.80
2018-09-09T03:25:51.193Z,18.35
2018-09-09T03:28:20.231Z,19.52
2018-09-09T03:30:49.360Z,17.45
2018-09-09T03:33:18.300Z,17.87
2018-09-09T03:35:47.581Z,19.92
2018-09-09T03:38:16.514Z,18.12
2018-09-09T03:40:45.457Z,17.15
2018-09-09T03:43:14.381Z,18.95
2018-09-09T03:45:43.345Z,15.32
2018-09-09T03:48:12.308Z,17.48
2018-09-09T03:50:41.275Z,17.37
2018-09-09T03:53:10.207Z,17.70
2018-09-09T03:55:39.165Z,17.55
2018-09-09T03:58:08.192Z,19.42
2018-09-09T04:00:37.604Z,21.33
2018-09-09T04:03:06.831Z,20.45
2018-09-09T04:05:35.845Z,19.67
2018-09-09T04:08:04.808Z,21.60
2018-09-09T04:10:33.720Z,19.65
2018-09-09T04:13:02.650Z,21.55
2018-09-09T04:15:31.603Z,20.57
2018-09-09T04:18:00.545Z,19.80
2018-09-09T04:20:29.485Z,20.45
2018-09-09T04:22:58.522Z,19.37
2018-09-09T04:25:27.521Z,18.57
2018-09-09T04:27:56.537Z,18.27
2018-09-09T04:30:25.432Z,20.25
2018-09-09T04:32:54.485Z,18.77
2018-09-09T04:35:23.388Z,17.80
2018-09-09T04:37:52.316Z,17.75
2018-09-09T04:40:21.281Z,16.97
2018-09-09T04:42:50.193Z,17.02
2018-09-09T04:45:19.290Z,17.92
2018-09-09T04:47:48.531Z,15.48
2018-09-09T04:50:17.557Z,17.25
2018-09-09T04:52:46.464Z,17.80
2018-09-09T04:55:15.432Z,17.55
2018-09-09T04:57:44.360Z,18.30
2018-09-09T05:00:13.393Z,18.48
2018-09-09T05:02:42.293Z,18.20
2018-09-09T05:05:11.257Z,16.77
2018-09-09T05:07:40.198Z,16.97
2018-09-09T05:10:09.197Z,17.67
2018-09-09T05:12:38.121Z,16.20
2018-09-09T05:15:07.132Z,17.73
2018-09-09T05:17:36.237Z,15.75
2018-09-09T05:20:05.546Z,15.75
2018-09-09T05:22:34.506Z,15.80
2018-09-09T05:25:03.454Z,15.98
2018-09-09T05:27:32.509Z,15.28
2018-09-09T05:30:01.459Z,15.60
2018-09-09T05:32:30.458Z,15.08
2018-09-09T05:34:59.428Z,15.72
2018-09-09T05:37:28.364Z,15.08
2018-09-09T05:39:57.311Z,15.95
2018-09-09T05:42:26.473Z,16.07
2018-09-09T05:44:55.337Z,14.45
2018-09-09T05:47:24.310Z,15.25
2018-09-09T05:49:53.265Z,13.20
2018-09-09T05:52:22.186Z,15.08
2018-09-09T05:54:51.249Z,13.48
2018-09-09T05:57:20.268Z,15.63
2018-09-09T05:59:49.230Z,13.85
2018-09-09T06:02:18.186Z,15.75
2018-09-09T06:04:47.164Z,15.68
2018-09-09T06:07:16.169Z,16.27
2018-09-09T06:09:45.178Z,15.28
2018-09-09T06:12:14.095Z,14.95
2018-09-09T06:14:43.019Z,16.32
2018-09-09T06:17:12.015Z,14.80
2018-09-09T06:19:40.943Z,15.53
2018-09-09T06:22:10.004Z,14.07
2018-09-09T06:24:38.932Z,15.58
2018-09-09T06:27:07.966Z,14.35
2018-09-09T06:29:36.872Z,13.65
2018-09-09T06:32:05.869Z,14.07
2018-09-09T06:34:34.824Z,14.25
2018-09-09T06:37:03.834Z,14.85
2018-09-09T06:39:32.736Z,16.15
2018-09-09T06:42:01.758Z,15.15
2018-09-09T06:44:30.670Z,14.30
2018-09-09T06:46:59.733Z,14.13
2018-09-09T06:49:29.354Z,14.00
2018-09-09T06:51:58.308Z,13.00
2018-09-09T06:54:27.277Z,13.90
2018-09-09T06:56:56.193Z,14.58
2018-09-09T06:59:25.158Z,14.55
2018-09-09T07:01:54.340Z,14.93
2018-09-09T07:04:23.301Z,13.35
2018-09-09T07:06:52.323Z,15.10
2018-09-09T07:09:22.066Z,13.28
2018-09-09T07:11:51.167Z,14.50
2018-09-09T07:14:20.005Z,13.60
2018-09-09T07:16:48.934Z,14.43
2018-09-09T07:19:17.898Z,13.10
2018-09-09T07:21:46.905Z,13.35
2018-09-09T07:24:15.873Z,13.60
2018-09-09T07:26:44.852Z,13.78
2018-09-09T07:29:13.778Z,12.93
2018-09-09T07:31:42.748Z,13.62
2018-09-09T07:34:11.794Z,13.22
2018-09-09T07:36:40.804Z,13.43
2018-09-09T07:39:09.790Z,12.60
2018-09-09T07:41:38.797Z,12.53
2018-09-09T07:44:07.928Z,12.23
2018-09-09T07:46:36.937Z,13.60
2018-09-09T07:49:06.254Z,15.03
2018-09-09T07:51:35.391Z,12.77
2018-09-09T07:54:04.373Z,13.57
2018-09-09T07:56:33.374Z,12.30
2018-09-09T07:59:02.416Z,12.83
2018-09-09T08:01:31.349Z,12.10
2018-09-09T08:04:00.332Z,12.73
2018-09-09T08:06:29.292Z,11.68
2018-09-09T08:08:58.275Z,13.32
2018-09-09T08:11:31.355Z,11.97
2018-09-09T08:14:00.360Z,13.90
2018-09-09T08:16:29.316Z,14.15
2018-09-09T08:18:58.286Z,12.80
2018-09-09T08:21:27.269Z,12.75
2018-09-09T08:23:56.285Z,11.85
2018-09-09T08:26:25.348Z,11.43
2018-09-09T08:28:54.292Z,11.08
2018-09-09T08:31:23.776Z,12.65
2018-09-09T08:33:52.812Z,11.73
2018-09-09T08:36:21.811Z,10.80
2018-09-09T08:38:50.749Z,11.63
2018-09-09T08:41:19.714Z,10.70
2018-09-09T08:43:48.653Z,10.70
2018-09-09T08:46:17.649Z,12.30
2018-09-09T08:48:46.581Z,9.70
2018-09-09T08:51:15.515Z,10.90
2018-09-09T08:53:44.451Z,10.57
2018-09-09T08:56:13.400Z,10.55
2018-09-09T08:58:42.340Z,11.83
2018-09-09T09:01:11.269Z,11.20
2018-09-09T09:03:40.226Z,10.75
2018-09-09T09:06:09.157Z,10.85
2018-09-09T09:08:38.201Z,10.38
2018-09-09T09:11:07.184Z,9.78
2018-09-09T09:13:36.216Z,8.20
2018-09-09T09:16:05.194Z,8.60
2018-09-09T09:18:34.236Z,9.48
2018-09-09T09:21:03.217Z,9.33
2018-09-09T09:23:32.188Z,10.25
2018-09-09T09:26:01.119Z,8.45
2018-09-09T09:28:30.029Z,9.45
2018-09-09T09:30:58.979Z,9.33
2018-09-09T09:33:27.893Z,9.60
2018-09-09T09:35:56.885Z,7.97
2018-09-09T09:38:25.852Z,8.80
2018-09-09T09:40:54.811Z,8.90
2018-09-09T09:43:23.734Z,7.75
2018-09-09T09:45:52.749Z,7.55
2018-09-09T09:48:21.684Z,6.95
2018-09-09T09:50:50.626Z,6.58
2018-09-09T09:53:19.707Z,6.25
2018-09-09T09:55:48.573Z,5.50
2018-09-09T09:58:17.498Z,5.03
2018-09-09T10:00:51.582Z,4.95
2018-09-09T10:03:20.570Z,4.75
2018-09-09T10:05:49.488Z,3.95
2018-09-09T10:08:18.643Z,6.00
2018-09-09T10:10:47.544Z,6.90
2018-09-09T10:13:16.503Z,5.10
2018-09-09T10:15:45.418Z,6.03
2018-09-09T10:18:14.679Z,5.55
2018-09-09T10:20:43.709Z,4.85
2018-09-09T10:23:12.636Z,4.20
2018-09-09T10:25:41.636Z,5.67
2018-09-09T10:28:10.601Z,6.42
2018-09-09T10:30:39.549Z,6.65
2018-09-09T10:33:23.161Z,4.85
2018-09-09T10:35:52.101Z,4.40
2018-09-09T10:38:21.084Z,4.30
2018-09-09T10:40:50.120Z,4.12
2018-09-09T10:43:19.131Z,3.47
2018-09-09T10:45:48.067Z,4.35
2018-09-09T10:48:17.016Z,4.25
2018-09-09T10:50:46.035Z,4.50
2018-09-09T10:53:15.011Z,4.05
2018-09-09T10:55:45.337Z,4.05
2018-09-09T10:58:14.276Z,4.58
2018-09-09T11:00:43.256Z,3.20
2018-09-09T11:03:12.217Z,2.90
2018-09-09T11:05:41.423Z,2.90
2018-09-09T11:08:13.817Z,4.10
2018-09-09T11:10:42.857Z,4.40
2018-09-09T11:13:11.812Z,3.60
2018-09-09T11:15:40.725Z,3.92
2018-09-09T11:18:09.845Z,3.30
2018-09-09T11:20:38.791Z,2.75
2018-09-09T11:23:07.728Z,2.98
2018-09-09T11:25:36.681Z,3.20
2018-09-09T11:28:05.956Z,3.12
2018-09-09T11:30:34.924Z,3.65
2018-09-09T11:33:03.855Z,2.67
2018-09-09T11:35:32.940Z,2.15
2018-09-09T11:38:01.874Z,3.30
2018-09-09T11:40:30.852Z,3.17
2018-09-09T11:42:59.795Z,3.25
2018-09-09T11:45:28.778Z,3.02
2018-09-09T11:47:58.441Z,3.60
2018-09-09T11:50:27.466Z,3.62
2018-09-09T11:52:56.400Z,3.20
2018-09-09T11:55:25.350Z,2.90
2018-09-09T11:57:54.449Z,2.85
2018-09-09T12:00:23.377Z,2.52
2018-09-09T12:02:52.366Z,3.85
2018-09-09T12:05:21.331Z,3.87
2018-09-09T12:07:50.280Z,3.47
2018-09-09T12:10:19.373Z,3.70
2018-09-09T12:12:48.305Z,3.27
2018-09-09T12:15:17.272Z,3.80
2018-09-09T12:17:46.268Z,3.50
2018-09-09T12:20:15.184Z,3.12
2018-09-09T12:22:44.183Z,4.10
2018-09-09T12:25:13.133Z,3.35
2018-09-09T12:27:42.057Z,3.37
2018-09-09T12:30:11.033Z,3.10
2018-09-09T12:32:40.014Z,4.15
2018-09-09T12:35:09.032Z,3.20
2018-09-09T12:37:37.978Z,4.03
2018-09-09T12:40:07.057Z,3.80
2018-09-09T12:42:36.015Z,3.60
2018-09-09T12:45:10.348Z,3.55
2018-09-09T12:47:44.600Z,4.50
2018-09-09T12:50:13.579Z,3.98
2018-09-09T12:52:42.518Z,2.90
2018-09-09T12:55:11.505Z,3.60
2018-09-09T12:57:40.419Z,3.50
2018-09-09T13:00:09.859Z,3.05
2018-09-09T13:02:38.859Z,3.17
2018-09-09T13:05:07.842Z,3.20
2018-09-09T13:07:36.784Z,3.22
2018-09-09T13:10:05.773Z,3.12
2018-09-09T13:12:39.839Z,2.80
2018-09-09T13:15:08.825Z,3.25
2018-09-09T13:17:37.773Z,2.95
2018-09-09T13:20:06.779Z,3.33
2018-09-09T13:22:35.885Z,2.85
2018-09-09T13:25:04.949Z,3.25
2018-09-09T13:27:33.949Z,3.17
2018-09-09T13:30:02.869Z,2.95
2018-09-09T13:32:31.804Z,4.22
2018-09-09T13:35:00.766Z,3.55
2018-09-09T13:37:29.933Z,3.52
2018-09-09T13:39:58.902Z,3.90
2018-09-09T13:42:27.874Z,3.20
2018-09-09T13:44:56.833Z,3.30
2018-09-09T13:47:25.854Z,2.85
2018-09-09T13:49:54.855Z,3.10
2018-09-09T13:52:23.805Z,3.60
2018-09-09T13:54:52.737Z,3.92
2018-09-09T13:57:21.657Z,3.55
2018-09-09T13:59:50.640Z,3.75
2018-09-09T14:02:19.588Z,3.80
2018-09-09T14:04:48.503Z,3.20
2018-09-09T14:07:17.577Z,3.42
2018-09-09T14:09:46.545Z,3.40
2018-09-09T14:12:15.613Z,2.72
2018-09-09T14:14:44.552Z,3.27
2018-09-09T14:17:13.579Z,3.65
2018-09-09T14:19:42.707Z,2.87
2018-09-09T14:22:11.774Z,2.67
2018-09-09T14:24:40.758Z,2.72
2018-09-09T14:27:09.724Z,2.85
2018-09-09T14:29:38.624Z,2.95
2018-09-09T14:32:07.617Z,3.30
2018-09-09T14:34:36.534Z,3.47
2018-09-09T14:37:05.464Z,2.42
2018-09-09T14:39:34.421Z,2.60
2018-09-09T14:42:03.325Z,3.27
2018-09-09T14:44:32.286Z,2.98
2018-09-09T14:47:01.194Z,3.45
2018-09-09T14:49:30.157Z,2.50
2018-09-09T14:51:59.068Z,2.75
2018-09-09T14:54:28.033Z,4.05
2018-09-09T14:56:56.933Z,3.42
2018-09-09T14:59:25.906Z,2.90
2018-09-09T15:01:54.849Z,3.20
2018-09-09T15:04:23.841Z,3.58
2018-09-09T15:06:52.839Z,3.50
2018-09-09T15:09:21.777Z,2.50
2018-09-09T15:11:50.743Z,3.25
2018-09-09T15:14:19.760Z,3.20
2018-09-09T15:16:48.725Z,3.02
2018-09-09T15:19:17.702Z,3.00
2018-09-09T15:21:46.676Z,3.27
2018-09-09T15:24:15.590Z,2.65
2018-09-09T15:26:44.585Z,2.90
2018-09-09T15:29:28.132Z,3.00
2018-09-09T15:31:57.108Z,2.80
2018-09-09T15:34:26.053Z,3.50
2018-09-09T15:36:55.006Z,2.80
2018-09-09T15:39:24.003Z,3.22
2018-09-09T15:41:52.985Z,3.27
2018-09-09T15:44:21.971Z,3.42
2018-09-09T15:46:50.948Z,3.77
2018-09-09T15:49:19.904Z,3.60
2018-09-09T15:51:48.860Z,2.98
2018-09-09T15:54:17.895Z,3.62
2018-09-09T15:56:46.902Z,3.35
2018-09-09T15:59:15.855Z,2.45
2018-09-09T16:01:44.766Z,3.10
2018-09-09T16:04:13.734Z,3.98
2018-09-09T16:06:42.671Z,3.22
2018-09-09T16:09:12.142Z,5.05
2018-09-09T16:11:41.128Z,6.08
2018-09-09T16:14:10.067Z,5.33
2018-09-09T16:16:39.289Z,5.60
2018-09-09T16:19:08.214Z,4.35
2018-09-09T16:21:37.180Z,3.25
2018-09-09T16:24:06.093Z,3.62
2018-09-09T16:26:35.040Z,4.92
2018-09-09T16:29:04.005Z,3.30
2018-09-09T16:31:32.949Z,3.05
2018-09-09T16:34:02.029Z,3.25
2018-09-09T16:36:30.973Z,3.05
2018-09-09T16:39:00.681Z,3.40
2018-09-09T16:41:30.544Z,3.33
2018-09-09T16:43:59.457Z,4.20
2018-09-09T16:46:28.384Z,3.25
2018-09-09T16:48:57.384Z,3.22
2018-09-09T16:51:26.346Z,3.75
2018-09-09T16:53:55.276Z,4.05
2018-09-09T16:56:24.205Z,4.30
2018-09-09T16:58:53.178Z,4.33
2018-09-09T17:01:22.202Z,4.67
2018-09-09T17:03:51.116Z,4.58
2018-09-09T17:06:20.118Z,4.28
2018-09-09T17:08:49.097Z,4.05
2018-09-09T17:11:18.076Z,3.40
2018-09-09T17:13:47.057Z,3.98
2018-09-09T17:16:16.421Z,4.37
2018-09-09T17:18:45.399Z,3.65
2018-09-09T17:21:14.359Z,4.30
2018-09-09T17:23:43.250Z,4.83
2018-09-09T17:26:12.216Z,4.50
2018-09-09T17:28:41.124Z,4.30
2018-09-09T17:31:10.062Z,4.67
2018-09-09T17:33:38.981Z,5.05
2018-09-09T17:36:07.927Z,4.37
2018-09-09T17:38:37.522Z,3.87
2018-09-09T17:41:06.510Z,3.80
2018-09-09T17:43:35.444Z,4.45
2018-09-09T17:46:04.424Z,4.20
2018-09-09T17:48:33.449Z,4.40
2018-09-09T17:51:02.449Z,4.67
2018-09-09T17:53:31.395Z,5.12
2018-09-09T17:56:00.676Z,5.55
2018-09-09T17:58:29.623Z,4.75
2018-09-09T18:00:58.627Z,5.50
2018-09-09T18:03:27.600Z,4.40
2018-09-09T18:05:56.535Z,4.37
2018-09-09T18:08:25.494Z,4.97
2018-09-09T18:10:54.487Z,6.05
2018-09-09T18:13:23.454Z,5.00
2018-09-09T18:15:52.522Z,5.47
2018-09-09T18:18:21.460Z,4.50
2018-09-09T18:20:50.559Z,5.28
2018-09-09T18:23:19.441Z,6.20
2018-09-09T18:25:48.378Z,5.90
2018-09-09T18:28:17.392Z,4.95
2018-09-09T18:30:46.319Z,5.80
2018-09-09T18:33:15.330Z,5.42
2018-09-09T18:35:44.928Z,5.70
2018-09-09T18:38:14.014Z,5.72
2018-09-09T18:40:42.990Z,5.55
2018-09-09T18:43:11.969Z,4.42
2018-09-09T18:45:40.888Z,6.12
2018-09-09T18:48:09.925Z,5.67
2018-09-09T18:50:38.846Z,5.95
2018-09-09T18:53:07.817Z,5.40
2018-09-09T18:55:36.763Z,5.37
2018-09-09T18:58:05.706Z,5.53
2018-09-09T19:00:34.666Z,6.08
2018-09-09T19:03:03.607Z,5.22
2018-09-09T19:05:32.575Z,5.97
2018-09-09T19:08:01.560Z,5.17
2018-09-09T19:10:30.502Z,5.42
2018-09-09T19:12:59.449Z,6.28
2018-09-09T19:15:28.429Z,7.30
2018-09-09T19:17:57.328Z,6.42
2018-09-09T19:20:26.352Z,6.05
2018-09-09T19:22:55.255Z,7.28
2018-09-09T19:25:24.180Z,6.90
2018-09-09T19:27:53.159Z,7.62
2018-09-09T19:30:22.094Z,6.50
2018-09-09T19:32:51.083Z,6.83
2018-09-09T19:35:20.053Z,7.65
2018-09-09T19:37:49.014Z,7.08
2018-09-09T19:40:17.937Z,7.87
2018-09-09T19:42:46.933Z,8.75
2018-09-09T19:45:15.946Z,8.95
2018-09-09T19:47:44.962Z,7.90
2018-09-09T19:50:13.951Z,8.25
2018-09-09T19:52:42.904Z,8.55
2018-09-09T19:55:11.968Z,8.58
2018-09-09T19:57:40.946Z,8.58
2018-09-09T20:00:09.957Z,10.63
2018-09-09T20:02:38.887Z,9.10
2018-09-09T20:05:07.852Z,11.03
2018-09-09T20:07:36.767Z,9.98
2018-09-09T20:10:06.085Z,8.88
2018-09-09T20:12:34.995Z,8.48
2018-09-09T20:15:03.961Z,8.25
2018-09-09T20:17:32.966Z,8.90
2018-09-09T20:20:01.930Z,9.18
2018-09-09T20:22:30.849Z,8.80
2018-09-09T20:24:59.824Z,9.25
2018-09-09T20:27:28.757Z,7.40
2018-09-09T20:29:57.661Z,8.38
2018-09-09T20:32:26.676Z,6.72
2018-09-09T20:34:56.469Z,6.12
2018-09-09T20:37:25.418Z,7.78
2018-09-09T20:39:54.349Z,6.40
2018-09-09T20:42:23.334Z,6.60
2018-09-09T20:44:52.236Z,6.40
2018-09-09T20:47:21.213Z,7.72
2018-09-09T20:49:50.169Z,8.73
2018-09-09T20:52:19.249Z,7.53
2018-09-09T20:54:48.178Z,7.70
2018-09-09T20:57:17.121Z,7.35
2018-09-09T20:59:46.081Z,7.62
2018-09-09T21:02:15.362Z,8.23
2018-09-09T21:04:44.427Z,8.40
2018-09-09T21:07:13.385Z,7.45
2018-09-09T21:09:42.512Z,8.90
2018-09-09T21:12:11.452Z,8.28
2018-09-09T21:14:40.398Z,8.20
2018-09-09T21:17:09.361Z,8.25
2018-09-09T21:19:38.353Z,8.48
2018-09-09T21:22:07.311Z,8.15
2018-09-09T21:24:36.228Z,9.68
2018-09-09T21:27:05.526Z,9.08
2018-09-09T21:29:34.494Z,9.18
2018-09-09T21:32:03.467Z,9.03
2018-09-09T21:34:32.403Z,7.92
2018-09-09T21:37:01.402Z,8.63
2018-09-09T21:39:30.317Z,8.65
2018-09-09T21:41:59.248Z,8.80
2018-09-09T21:44:28.193Z,8.10
2018-09-09T21:46:57.124Z,8.23
2018-09-09T21:49:26.045Z,8.45
2018-09-09T21:51:54.994Z,8.98
2018-09-09T21:54:23.990Z,8.83
2018-09-09T21:56:52.994Z,8.05
2018-09-09T21:59:21.917Z,7.97
2018-09-09T22:01:56.249Z,7.78
2018-09-09T22:04:25.156Z,8.23
2018-09-09T22:06:54.088Z,9.35
2018-09-09T22:09:23.037Z,8.65
2018-09-09T22:11:51.947Z,8.30
2018-09-09T22:14:21.078Z,8.38
2018-09-09T22:16:50.043Z,8.93
2018-09-09T22:19:19.044Z,8.60
2018-09-09T22:21:48.858Z,8.93
2018-09-09T22:24:19.573Z,8.80
2018-09-09T22:26:48.586Z,7.60
2018-09-09T22:29:17.707Z,8.63
2018-09-09T22:31:46.674Z,8.23
2018-09-09T22:34:15.896Z,8.88
2018-09-09T22:36:44.867Z,8.90
2018-09-09T22:39:13.844Z,8.35
2018-09-09T22:41:43.188Z,8.80
2018-09-09T22:44:13.100Z,8.58
2018-09-09T22:46:42.707Z,9.30
2018-09-09T22:49:11.625Z,9.00
2018-09-09T22:51:40.561Z,8.08
2018-09-09T22:54:09.484Z,10.45
2018-09-09T22:56:38.496Z,9.60
2018-09-09T22:59:07.483Z,9.23
2018-09-09T23:01:36.407Z,10.35
2018-09-09T23:04:05.423Z,9.85
2018-09-09T23:06:34.368Z,8.83
2018-09-09T23:09:04.504Z,8.90
2018-09-09T23:11:33.795Z,8.80
2018-09-09T23:14:02.738Z,9.58
2018-09-09T23:16:31.668Z,9.35
2018-09-09T23:19:00.648Z,10.20
2018-09-09T23:21:29.573Z,9.85
2018-09-09T23:23:58.710Z,9.78
2018-09-09T23:26:27.679Z,10.18
2018-09-09T23:28:56.707Z,9.70
2018-09-09T23:31:25.615Z,10.13
2018-09-09T23:33:54.589Z,10.28
2018-09-09T23:36:23.534Z,10.43
2018-09-09T23:38:52.452Z,9.30
2018-09-09T23:41:21.400Z,11.38
2018-09-09T23:43:50.300Z,12.07
2018-09-09T23:46:19.383Z,10.08
2018-09-09T23:48:48.320Z,10.15
2018-09-09T23:51:17.346Z,9.50
2018-09-09T23:53:46.252Z,10.15
2018-09-09T23:56:15.262Z,8.88
2018-09-09T23:58:44.192Z,10.32
